createdAt,value
2023-03-22T00:02:02.645Z,4.53
2023-03-22T00:04:29.102Z,3.67
2023-03-22T00:06:55.462Z,3.72
2023-03-22T00:09:21.821Z,3.67
2023-03-22T00:11:50.937Z,3.85
2023-03-22T00:14:18.384Z,3.70
2023-03-22T00:16:46.186Z,4.13
2023-03-22T00:19:12.673Z,4.65
2023-03-22T00:21:39.034Z,4.13
2023-03-22T00:24:05.785Z,4.50
2023-03-22T00:26:32.155Z,5.15
2023-03-22T00:28:58.557Z,4.10
2023-03-22T00:31:25.112Z,4.28
2023-03-22T00:33:51.529Z,5.20
2023-03-22T00:36:17.981Z,4.63
2023-03-22T00:38:44.959Z,4.47
2023-03-22T00:41:17.362Z,4.35
2023-03-22T00:43:44.538Z,4.72
2023-03-22T00:46:12.449Z,5.18
2023-03-22T00:48:39.247Z,5.05
2023-03-22T00:51:06.522Z,4.47
2023-03-22T00:53:33.544Z,4.57
2023-03-22T00:56:00.251Z,4.95
2023-03-22T00:58:26.793Z,4.53
2023-03-22T01:00:53.348Z,5.00
2023-03-22T01:03:22.048Z,5.70
2023-03-22T01:05:51.857Z,5.07
2023-03-22T01:08:18.284Z,5.32
2023-03-22T01:10:44.828Z,5.28
2023-03-22T01:13:13.431Z,5.60
2023-03-22T01:15:41.253Z,5.65
2023-03-22T01:18:08.716Z,5.40
2023-03-22T01:20:36.185Z,5.65
2023-03-22T01:23:02.902Z,6.00
2023-03-22T01:25:29.450Z,5.50
2023-03-22T01:27:56.113Z,5.53
2023-03-22T01:30:22.554Z,5.90
2023-03-22T01:32:48.973Z,5.45
2023-03-22T01:35:15.509Z,5.68
2023-03-22T01:37:41.875Z,5.57
2023-03-22T01:40:08.766Z,5.82
2023-03-22T01:42:35.586Z,5.60
2023-03-22T01:45:39.988Z,5.00
2023-03-22T01:48:46.096Z,5.28
2023-03-22T01:53:48.174Z,4.53
2023-03-22T01:56:14.644Z,5.38
2023-03-22T01:58:42.031Z,5.13
2023-03-22T02:01:10.287Z,5.85
2023-03-22T02:03:58.365Z,5.40
2023-03-22T02:06:26.430Z,4.85
2023-03-22T02:08:58.049Z,5.28
2023-03-22T02:11:38.466Z,5.22
2023-03-22T02:14:13.752Z,5.50
2023-03-22T02:17:01.251Z,6.25
2023-03-22T02:19:42.250Z,6.15
2023-03-22T02:22:39.362Z,6.68
2023-03-22T02:25:43.704Z,6.97
2023-03-22T02:28:10.122Z,6.68
2023-03-22T02:31:02.151Z,7.32
2023-03-22T02:33:59.686Z,7.43
2023-03-22T02:36:47.684Z,7.18
2023-03-22T02:39:31.614Z,7.20
2023-03-22T02:42:17.403Z,7.18
2023-03-22T02:45:01.428Z,7.00
2023-03-22T02:47:40.823Z,7.30
2023-03-22T02:50:15.217Z,6.88
2023-03-22T02:52:52.824Z,7.03
2023-03-22T02:55:45.296Z,7.35
2023-03-22T02:58:29.137Z,7.55
2023-03-22T03:01:01.780Z,6.85
2023-03-22T03:03:31.961Z,8.07
2023-03-22T03:06:08.359Z,7.60
2023-03-22T03:08:36.926Z,6.90
2023-03-22T03:11:03.447Z,7.13
2023-03-22T03:13:30.381Z,7.25
2023-03-22T03:15:59.457Z,8.07
2023-03-22T03:18:50.340Z,7.10
2023-03-22T03:21:19.600Z,7.22
2023-03-22T03:24:11.335Z,7.35
2023-03-22T03:27:00.809Z,7.38
2023-03-22T03:29:38.684Z,7.78
2023-03-22T03:32:31.479Z,7.88
2023-03-22T03:35:22.986Z,7.18
2023-03-22T03:37:53.822Z,7.53
2023-03-22T03:40:26.595Z,7.78
2023-03-22T03:42:56.080Z,7.68
2023-03-22T03:45:23.774Z,7.63
2023-03-22T03:47:56.853Z,8.45
2023-03-22T03:50:25.472Z,7.60
2023-03-22T03:52:53.787Z,7.80
2023-03-22T03:55:21.164Z,7.40
2023-03-22T03:57:47.715Z,7.53
2023-03-22T04:00:14.917Z,7.63
2023-03-22T04:02:42.439Z,7.47
2023-03-22T04:05:09.944Z,7.63
2023-03-22T04:07:37.208Z,7.90
2023-03-22T04:10:05.200Z,8.27
2023-03-22T04:12:32.526Z,7.90
2023-03-22T04:14:59.010Z,7.57
2023-03-22T04:17:27.064Z,7.60
2023-03-22T04:19:53.418Z,7.82
2023-03-22T04:22:19.806Z,7.05
2023-03-22T04:24:50.075Z,7.38
2023-03-22T04:27:17.988Z,7.75
2023-03-22T04:29:48.419Z,8.02
2023-03-22T04:32:19.048Z,7.28
2023-03-22T04:34:46.445Z,6.45
2023-03-22T04:37:13.808Z,6.75
2023-03-22T04:39:40.456Z,7.28
2023-03-22T04:42:06.828Z,6.43
2023-03-22T04:44:33.217Z,7.50
2023-03-22T04:46:59.612Z,6.47
2023-03-22T04:49:29.430Z,6.10
2023-03-22T04:51:56.010Z,6.68
2023-03-22T04:54:23.259Z,7.30
2023-03-22T04:56:50.065Z,7.22
2023-03-22T04:59:20.310Z,6.85
2023-03-22T05:01:51.358Z,8.38
2023-03-22T05:04:18.651Z,7.43
2023-03-22T05:06:45.616Z,6.75
2023-03-22T05:09:12.607Z,7.18
2023-03-22T05:11:40.574Z,6.93
2023-03-22T05:14:08.757Z,6.20
2023-03-22T05:16:35.874Z,6.88
2023-03-22T05:19:02.995Z,6.72
2023-03-22T05:21:36.808Z,6.68
2023-03-22T05:24:03.770Z,5.97
2023-03-22T05:26:30.410Z,6.32
2023-03-22T05:28:56.859Z,5.88
2023-03-22T05:31:23.959Z,6.60
2023-03-22T05:33:52.048Z,5.72
2023-03-22T05:36:20.510Z,5.70
2023-03-22T05:38:47.529Z,5.78
2023-03-22T05:41:14.041Z,5.35
2023-03-22T05:43:40.839Z,5.75
2023-03-22T05:46:11.782Z,6.20
2023-03-22T05:48:39.006Z,5.82
2023-03-22T05:51:10.286Z,5.80
2023-03-22T05:53:37.063Z,5.80
2023-03-22T05:56:03.684Z,5.47
2023-03-22T05:58:31.820Z,6.25
2023-03-22T06:01:00.944Z,5.57
2023-03-22T06:03:28.388Z,5.75
2023-03-22T06:05:54.940Z,5.45
2023-03-22T06:08:24.732Z,6.18
2023-03-22T06:10:53.396Z,6.05
2023-03-22T06:13:20.680Z,5.65
2023-03-22T06:15:47.407Z,7.18
2023-03-22T06:18:13.854Z,6.40
2023-03-22T06:20:40.733Z,6.15
2023-03-22T06:23:07.315Z,6.57
2023-03-22T06:25:33.719Z,6.30
2023-03-22T06:28:00.373Z,6.85
2023-03-22T06:30:26.971Z,6.63
2023-03-22T06:32:53.459Z,5.90
2023-03-22T06:35:20.085Z,6.00
2023-03-22T06:37:46.546Z,5.88
2023-03-22T06:40:12.947Z,6.80
2023-03-22T06:42:39.287Z,6.15
2023-03-22T06:45:07.049Z,6.20
2023-03-22T06:47:33.374Z,6.38
2023-03-22T06:49:59.726Z,5.80
2023-03-22T06:52:26.135Z,6.30
2023-03-22T06:54:52.578Z,5.70
2023-03-22T06:57:18.970Z,6.88
2023-03-22T06:59:45.492Z,6.63
2023-03-22T07:02:12.153Z,6.60
2023-03-22T07:04:38.602Z,6.60
2023-03-22T07:07:05.627Z,5.95
2023-03-22T07:09:31.991Z,5.80
2023-03-22T07:11:58.354Z,5.82
2023-03-22T07:14:24.739Z,5.78
2023-03-22T07:16:51.164Z,5.72
2023-03-22T07:19:18.379Z,5.75
2023-03-22T07:21:44.825Z,5.10
2023-03-22T07:24:11.996Z,4.93
2023-03-22T07:26:39.049Z,3.40
2023-03-22T07:29:05.418Z,3.60
2023-03-22T07:31:36.361Z,3.15
2023-03-22T07:34:04.081Z,3.13
2023-03-22T07:36:30.975Z,3.67
2023-03-22T07:38:57.765Z,3.50
2023-03-22T07:41:25.381Z,4.60
2023-03-22T07:43:56.828Z,3.55
2023-03-22T07:46:28.783Z,3.22
2023-03-22T07:48:55.180Z,3.13
2023-03-22T07:51:21.498Z,2.47
2023-03-22T07:53:47.919Z,3.05
2023-03-22T07:56:14.390Z,2.47
2023-03-22T07:58:40.923Z,2.83
2023-03-22T08:01:10.816Z,2.20
2023-03-22T08:03:37.677Z,2.30
2023-03-22T08:06:07.731Z,2.28
2023-03-22T08:08:35.564Z,2.00
2023-03-22T08:11:02.078Z,2.10
2023-03-22T08:13:28.592Z,1.60
2023-03-22T08:15:55.193Z,2.22
2023-03-22T08:18:21.843Z,2.20
2023-03-22T08:20:54.585Z,1.90
2023-03-22T08:23:28.791Z,1.75
2023-03-22T08:26:01.359Z,1.55
2023-03-22T08:28:27.770Z,1.50
2023-03-22T08:30:54.153Z,1.38
2023-03-22T08:33:23.473Z,1.15
2023-03-22T08:35:50.655Z,1.52
2023-03-22T08:38:18.032Z,1.38
2023-03-22T08:40:47.902Z,1.38
2023-03-22T08:43:14.256Z,1.30
2023-03-22T08:45:41.042Z,1.20
2023-03-22T08:48:07.631Z,1.75
2023-03-22T08:50:34.908Z,1.50
2023-03-22T08:53:01.299Z,1.73
2023-03-22T08:55:27.809Z,1.30
2023-03-22T08:57:58.682Z,1.55
2023-03-22T09:00:25.478Z,1.30
2023-03-22T09:02:52.036Z,1.13
2023-03-22T09:05:18.628Z,1.20
2023-03-22T09:07:45.268Z,1.30
2023-03-22T09:10:11.931Z,1.15
2023-03-22T09:12:38.746Z,1.63
2023-03-22T09:15:06.243Z,1.30
2023-03-22T09:17:32.943Z,0.88
2023-03-22T09:20:11.637Z,1.23
2023-03-22T09:22:38.850Z,1.02
2023-03-22T09:25:06.438Z,0.80
2023-03-22T09:27:33.187Z,1.58
2023-03-22T09:30:00.216Z,1.20
2023-03-22T09:32:26.620Z,0.93
2023-03-22T09:34:53.169Z,1.25
2023-03-22T09:37:20.297Z,1.10
2023-03-22T09:39:46.739Z,0.93
2023-03-22T09:42:38.363Z,0.88
2023-03-22T09:45:08.674Z,1.20
2023-03-22T09:47:44.841Z,1.38
2023-03-22T09:50:19.902Z,1.02
2023-03-22T09:52:46.530Z,1.17
2023-03-22T09:55:33.180Z,1.10
2023-03-22T09:58:10.713Z,1.10
2023-03-22T10:00:43.338Z,0.95
2023-03-22T10:03:41.232Z,1.02
2023-03-22T10:06:21.759Z,1.15
2023-03-22T10:09:03.332Z,1.00
2023-03-22T10:11:48.045Z,1.00
2023-03-22T10:14:36.024Z,1.50
2023-03-22T10:17:08.484Z,1.25
2023-03-22T10:19:53.064Z,1.30
2023-03-22T10:22:25.115Z,1.17
2023-03-22T10:24:53.317Z,1.13
2023-03-22T10:27:22.292Z,1.30
2023-03-22T10:29:55.777Z,1.40
2023-03-22T10:33:04.473Z,1.30
2023-03-22T10:35:31.894Z,1.30
2023-03-22T10:38:01.941Z,1.20
2023-03-22T10:40:34.061Z,0.98
2023-03-22T10:43:07.717Z,1.20
2023-03-22T10:45:36.086Z,1.08
2023-03-22T10:48:21.202Z,1.00
2023-03-22T10:50:47.768Z,1.15
2023-03-22T10:53:20.033Z,1.23
2023-03-22T10:55:46.492Z,1.50
2023-03-22T10:58:18.910Z,1.20
2023-03-22T11:00:51.800Z,1.10
2023-03-22T11:03:31.898Z,0.88
2023-03-22T11:06:11.483Z,1.48
2023-03-22T11:08:47.675Z,1.10
2023-03-22T11:11:19.972Z,1.48
2023-03-22T11:13:52.390Z,1.08
2023-03-22T11:16:20.164Z,1.55
2023-03-22T11:18:47.113Z,1.05
2023-03-22T11:21:17.004Z,1.05
2023-03-22T11:23:58.346Z,1.58
2023-03-22T11:26:27.678Z,1.27
2023-03-22T11:29:04.569Z,1.30
2023-03-22T11:31:55.142Z,1.50
2023-03-22T11:34:24.255Z,1.33
2023-03-22T11:36:57.090Z,1.10
2023-03-22T11:39:28.089Z,1.48
2023-03-22T11:41:58.199Z,1.30
2023-03-22T11:44:27.026Z,1.45
2023-03-22T11:47:00.585Z,1.33
2023-03-22T11:49:37.638Z,1.30
2023-03-22T11:52:11.291Z,0.90
2023-03-22T11:54:39.528Z,0.95
2023-03-22T11:57:13.402Z,1.25
2023-03-22T11:59:58.267Z,1.30
2023-03-22T12:02:32.406Z,1.10
2023-03-22T12:05:05.436Z,1.50
2023-03-22T12:07:34.501Z,1.23
2023-03-22T12:10:15.768Z,1.10
2023-03-22T12:12:51.612Z,1.50
2023-03-22T12:15:22.270Z,1.58
2023-03-22T12:17:58.673Z,1.42
2023-03-22T12:20:43.103Z,1.25
2023-03-22T12:23:15.555Z,1.00
2023-03-22T12:25:49.157Z,0.93
2023-03-22T12:28:20.231Z,1.25
2023-03-22T12:30:51.328Z,1.05
2023-03-22T12:33:27.437Z,1.38
2023-03-22T12:35:58.706Z,1.20
2023-03-22T12:38:37.056Z,1.95
2023-03-22T12:41:09.785Z,1.15
2023-03-22T12:43:44.380Z,0.80
2023-03-22T12:46:19.385Z,1.40
2023-03-22T12:51:15.577Z,0.90
2023-03-22T12:53:46.886Z,0.82
2023-03-22T12:56:17.485Z,1.20
2023-03-22T12:58:51.792Z,0.90
2023-03-22T13:01:30.065Z,1.27
2023-03-22T13:03:57.793Z,1.08
2023-03-22T13:06:58.589Z,1.00
2023-03-22T13:09:27.663Z,1.02
2023-03-22T13:12:16.375Z,0.93
2023-03-22T13:14:48.872Z,1.40
2023-03-22T13:17:35.624Z,1.00
2023-03-22T13:20:11.442Z,1.27
2023-03-22T13:22:38.030Z,1.30
2023-03-22T13:25:12.468Z,1.08
2023-03-22T13:28:03.301Z,0.82
2023-03-22T13:30:34.658Z,1.55
2023-03-22T13:33:10.314Z,1.00
2023-03-22T13:35:39.891Z,1.30
2023-03-22T13:38:19.624Z,1.15
2023-03-22T13:40:51.813Z,1.05
2023-03-22T13:43:27.352Z,1.25
2023-03-22T13:46:06.967Z,0.93
2023-03-22T13:48:43.911Z,1.27
2023-03-22T13:51:25.765Z,1.20
2023-03-22T13:54:00.340Z,1.20
2023-03-22T13:56:41.070Z,1.50
2023-03-22T13:59:32.402Z,1.00
2023-03-22T14:02:16.298Z,1.17
2023-03-22T14:04:46.151Z,1.02
2023-03-22T14:07:13.732Z,1.50
2023-03-22T14:09:48.703Z,1.17
2023-03-22T14:14:54.911Z,0.93
2023-03-22T14:17:53.587Z,1.13
2023-03-22T14:20:22.833Z,1.27
